createdAt,value
2023-02-05T00:00:50.273Z,-2.03
2023-02-05T00:03:17.994Z,-2.05
2023-02-05T00:05:45.694Z,-2.09
2023-02-05T00:08:13.378Z,-2.14
2023-02-05T00:10:42.435Z,-2.16
2023-02-05T00:13:10.212Z,-2.17
2023-02-05T00:15:41.389Z,-2.15
2023-02-05T00:18:09.046Z,-2.17
2023-02-05T00:20:37.300Z,-2.12
2023-02-05T00:23:04.991Z,-2.08
2023-02-05T00:25:33.043Z,-2.07
2023-02-05T00:28:02.420Z,-2.08
2023-02-05T00:30:30.334Z,-2.15
2023-02-05T00:32:58.099Z,-2.12
2023-02-05T00:35:25.763Z,-2.09
2023-02-05T00:37:57.040Z,-2.07
2023-02-05T00:40:24.730Z,-2.03
2023-02-05T00:42:52.405Z,-2.03
2023-02-05T00:45:21.445Z,-2.02
2023-02-05T00:47:49.094Z,-2.05
2023-02-05T00:50:21.134Z,-2.06
2023-02-05T00:52:48.795Z,-2.11
2023-02-05T00:55:16.647Z,-2.12
2023-02-05T00:57:44.295Z,-2.17
2023-02-05T01:00:13.000Z,-2.19
2023-02-05T01:02:42.103Z,-2.30
2023-02-05T01:05:10.282Z,-2.33
2023-02-05T01:07:38.008Z,-2.36
2023-02-05T01:10:06.415Z,-2.43
2023-02-05T01:12:34.254Z,-2.48
2023-02-05T01:15:02.457Z,-2.51
2023-02-05T01:17:30.167Z,-2.54
2023-02-05T01:19:59.205Z,-2.60
2023-02-05T01:22:27.079Z,-2.65
2023-02-05T01:24:54.976Z,-2.63
2023-02-05T01:27:22.630Z,-2.60
2023-02-05T01:29:50.323Z,-2.58
2023-02-05T01:32:18.331Z,-2.55
2023-02-05T01:34:46.478Z,-2.57
2023-02-05T01:37:15.638Z,-2.58
2023-02-05T01:39:43.439Z,-2.57
2023-02-05T01:42:19.332Z,-2.56
2023-02-05T01:45:36.213Z,-2.61
2023-02-05T01:48:04.910Z,-2.63
2023-02-05T01:50:37.398Z,-2.63
2023-02-05T01:53:10.885Z,-2.65
2023-02-05T01:55:44.810Z,-2.61
2023-02-05T01:58:15.798Z,-2.70
2023-02-05T02:00:44.270Z,-2.79
2023-02-05T02:03:14.228Z,-2.88
2023-02-05T02:05:41.941Z,-2.87
2023-02-05T02:08:13.543Z,-2.90
2023-02-05T02:10:44.536Z,-2.95
2023-02-05T02:13:14.106Z,-3.00
2023-02-05T02:15:42.674Z,-3.00
2023-02-05T02:18:29.136Z,-2.97
2023-02-05T02:21:20.288Z,-2.97
2023-02-05T02:24:07.772Z,-2.93
2023-02-05T02:26:54.524Z,-2.84
2023-02-05T02:29:32.955Z,-2.80
2023-02-05T02:32:04.331Z,-2.81
2023-02-05T02:34:38.829Z,-2.79
2023-02-05T02:37:10.731Z,-2.84
2023-02-05T02:39:44.656Z,-2.88
2023-02-05T02:42:16.472Z,-2.98
2023-02-05T02:44:49.985Z,-2.96
2023-02-05T02:47:21.749Z,-2.93
2023-02-05T02:49:53.546Z,-2.90
2023-02-05T02:52:22.401Z,-2.88
2023-02-05T02:54:53.702Z,-2.90
2023-02-05T02:57:25.078Z,-2.95
2023-02-05T02:59:57.608Z,-2.97
2023-02-05T03:02:27.816Z,-3.00
2023-02-05T03:04:58.608Z,-3.06
2023-02-05T03:07:29.555Z,-3.11
2023-02-05T03:10:01.701Z,-3.13
2023-02-05T03:12:29.522Z,-3.22
2023-02-05T03:14:58.962Z,-3.25
2023-02-05T03:17:28.558Z,-3.32
2023-02-05T03:20:03.397Z,-3.34
2023-02-05T03:22:31.096Z,-3.40
2023-02-05T03:24:58.837Z,-3.48
2023-02-05T03:27:26.542Z,-3.53
2023-02-05T03:29:54.384Z,-3.54
2023-02-05T03:32:36.478Z,-3.63
2023-02-05T03:35:24.260Z,-3.63
2023-02-05T03:38:07.092Z,-3.74
2023-02-05T03:40:44.697Z,-3.86
2023-02-05T03:43:17.191Z,-3.90
2023-02-05T03:45:51.095Z,-3.92
2023-02-05T03:48:40.418Z,-3.99
2023-02-05T03:51:20.171Z,-3.90
2023-02-05T03:53:56.623Z,-3.90
2023-02-05T03:56:29.727Z,-3.87
2023-02-05T03:58:58.991Z,-3.87
2023-02-05T04:01:27.051Z,-3.94
2023-02-05T04:03:56.606Z,-4.10
2023-02-05T04:06:24.286Z,-4.03
2023-02-05T04:08:52.011Z,-4.03
2023-02-05T04:11:19.807Z,-4.02
2023-02-05T04:13:47.525Z,-3.97
2023-02-05T04:16:15.266Z,-4.02
2023-02-05T04:18:42.977Z,-4.00
2023-02-05T04:21:12.066Z,-4.01
2023-02-05T04:23:39.804Z,-4.02
2023-02-05T04:26:07.515Z,-4.04
2023-02-05T04:28:35.699Z,-4.06
2023-02-05T04:31:03.438Z,-4.07
2023-02-05T04:33:31.120Z,-4.15
2023-02-05T04:35:59.922Z,-4.19
2023-02-05T04:38:29.540Z,-4.19
2023-02-05T04:40:57.332Z,-4.25
2023-02-05T04:43:27.778Z,-4.23
2023-02-05T04:45:55.595Z,-4.31
2023-02-05T04:48:23.319Z,-4.31
2023-02-05T04:50:51.029Z,-4.28
2023-02-05T04:53:18.784Z,-4.32
2023-02-05T04:55:47.871Z,-4.31
2023-02-05T04:58:15.536Z,-4.46
2023-02-05T05:00:43.302Z,-4.50
2023-02-05T05:03:11.005Z,-4.49
2023-02-05T05:05:38.767Z,-4.59
2023-02-05T05:08:06.626Z,-4.65
2023-02-05T05:10:34.340Z,-4.64
2023-02-05T05:13:03.419Z,-4.52
2023-02-05T05:15:31.133Z,-4.44
2023-02-05T05:17:58.911Z,-4.42
2023-02-05T05:20:26.636Z,-4.39
2023-02-05T05:22:54.406Z,-4.37
2023-02-05T05:25:22.139Z,-4.43
2023-02-05T05:27:50.331Z,-4.36
2023-02-05T05:30:19.885Z,-4.35
2023-02-05T05:32:47.635Z,-4.36
2023-02-05T05:35:18.668Z,-4.36
2023-02-05T05:37:46.361Z,-4.35
2023-02-05T05:40:31.664Z,-4.39
2023-02-05T05:43:16.934Z,-4.41
2023-02-05T05:45:46.106Z,-4.45
2023-02-05T05:48:13.849Z,-4.52
2023-02-05T05:50:41.673Z,-4.54
2023-02-05T05:53:09.439Z,-4.58
2023-02-05T05:55:40.110Z,-4.68
2023-02-05T05:58:07.844Z,-4.72
2023-02-05T06:00:35.712Z,-4.74
2023-02-05T06:03:05.247Z,-4.79
2023-02-05T06:05:33.526Z,-4.82
2023-02-05T06:08:01.479Z,-4.80
2023-02-05T06:10:29.321Z,-4.80
2023-02-05T06:12:57.804Z,-4.87
2023-02-05T06:15:26.705Z,-4.88
2023-02-05T06:17:54.767Z,-4.88
2023-02-05T06:20:24.227Z,-4.88
2023-02-05T06:22:52.551Z,-4.81
2023-02-05T06:25:20.484Z,-4.72
2023-02-05T06:27:48.212Z,-4.67
2023-02-05T06:30:16.036Z,-4.60
2023-02-05T06:32:43.760Z,-4.59
2023-02-05T06:35:11.567Z,-4.61
2023-02-05T06:37:48.072Z,-4.57
2023-02-05T06:40:18.062Z,-4.48
2023-02-05T06:42:46.432Z,-4.38
2023-02-05T06:45:14.128Z,-4.36
2023-02-05T06:47:41.875Z,-4.27
2023-02-05T06:50:10.231Z,-4.25
2023-02-05T06:52:39.083Z,-4.24
2023-02-05T06:55:08.674Z,-4.19
2023-02-05T06:57:36.423Z,-4.17
2023-02-05T07:00:05.521Z,-4.18
2023-02-05T07:02:33.697Z,-4.21
2023-02-05T07:05:01.504Z,-4.16
2023-02-05T07:07:29.286Z,-4.15
2023-02-05T07:09:57.022Z,-4.07
2023-02-05T07:12:26.176Z,-3.98
2023-02-05T07:14:53.918Z,-3.91
2023-02-05T07:17:21.938Z,-3.88
2023-02-05T07:19:49.750Z,-3.82
2023-02-05T07:22:17.527Z,-3.76
2023-02-05T07:24:45.337Z,-3.68
2023-02-05T07:27:13.060Z,-3.61
2023-02-05T07:29:42.170Z,-3.57
2023-02-05T07:32:10.093Z,-3.50
2023-02-05T07:34:38.069Z,-3.41
2023-02-05T07:37:05.931Z,-3.35
2023-02-05T07:39:34.388Z,-3.27
2023-02-05T07:42:02.233Z,-3.21
2023-02-05T07:44:29.951Z,-3.14
2023-02-05T07:46:59.058Z,-3.07
2023-02-05T07:49:26.873Z,-3.07
2023-02-05T07:51:54.585Z,-3.09
2023-02-05T07:54:22.373Z,-3.07
2023-02-05T07:56:50.076Z,-2.99
2023-02-05T07:59:17.800Z,-2.90
2023-02-05T08:01:45.574Z,-2.85
2023-02-05T08:04:14.734Z,-2.77
2023-02-05T08:06:43.122Z,-2.66
2023-02-05T08:09:11.664Z,-2.58
2023-02-05T08:11:39.567Z,-2.54
2023-02-05T08:14:07.321Z,-2.43
2023-02-05T08:16:35.070Z,-2.30
2023-02-05T08:19:02.827Z,-2.23
2023-02-05T08:21:31.927Z,-1.99
2023-02-05T08:24:01.012Z,-1.84
2023-02-05T08:26:28.819Z,-1.64
2023-02-05T08:28:56.630Z,-1.47
2023-02-05T08:31:24.400Z,-1.34
2023-02-05T08:33:54.757Z,-1.22
2023-02-05T08:36:22.726Z,-0.97
2023-02-05T08:38:51.841Z,-0.87
2023-02-05T08:41:19.708Z,-0.65
2023-02-05T08:43:49.186Z,-0.55
2023-02-05T08:46:20.180Z,-0.36
2023-02-05T08:48:48.436Z,-0.17
2023-02-05T08:51:17.470Z,-0.02
2023-02-05T08:53:45.242Z,0.07
2023-02-05T08:56:15.566Z,0.27
2023-02-05T08:58:43.494Z,0.41
2023-02-05T09:01:14.206Z,0.64
2023-02-05T09:03:42.368Z,0.94
2023-02-05T09:06:12.497Z,1.16
2023-02-05T09:08:40.294Z,1.37
2023-02-05T09:11:08.738Z,1.50
2023-02-05T09:13:37.890Z,1.68
2023-02-05T09:16:06.254Z,1.87
2023-02-05T09:18:33.969Z,1.98
2023-02-05T09:21:01.693Z,2.12
2023-02-05T09:23:29.986Z,2.23
2023-02-05T09:25:59.830Z,2.30
2023-02-05T09:28:27.617Z,2.39
2023-02-05T09:30:56.954Z,2.60
2023-02-05T09:33:24.745Z,2.69
2023-02-05T09:35:52.477Z,2.79
2023-02-05T09:38:20.169Z,2.92
2023-02-05T09:40:57.480Z,3.11
2023-02-05T09:43:44.936Z,3.27
2023-02-05T09:46:21.201Z,3.44
2023-02-05T09:48:54.812Z,3.42
2023-02-05T09:51:33.194Z,3.57
2023-02-05T09:54:07.634Z,3.79
2023-02-05T09:56:37.015Z,3.93
2023-02-05T09:59:06.530Z,4.33
2023-02-05T10:01:44.394Z,4.59
2023-02-05T10:04:12.461Z,4.67
2023-02-05T10:06:56.852Z,4.88
2023-02-05T10:09:51.462Z,5.34
2023-02-05T10:12:28.355Z,5.43
2023-02-05T10:15:14.774Z,5.22
2023-02-05T10:17:56.513Z,5.11
2023-02-05T10:20:42.350Z,4.83
2023-02-05T10:23:16.596Z,4.59
2023-02-05T10:26:00.179Z,4.39
2023-02-05T10:28:44.306Z,4.41
2023-02-05T10:31:23.718Z,4.69
2023-02-05T10:33:56.169Z,5.15
2023-02-05T10:36:26.235Z,5.78
2023-02-05T10:38:56.999Z,5.82
2023-02-05T10:41:31.254Z,6.26
2023-02-05T10:44:05.904Z,6.86
2023-02-05T10:46:36.432Z,6.74
2023-02-05T10:49:14.560Z,6.67
2023-02-05T10:51:43.977Z,6.17
2023-02-05T10:54:20.324Z,5.82
2023-02-05T10:56:48.951Z,5.67
2023-02-05T10:59:22.792Z,5.55
2023-02-05T11:01:51.800Z,5.46
2023-02-05T11:04:26.815Z,5.50
2023-02-05T11:06:54.983Z,5.63
2023-02-05T11:09:32.243Z,6.15
2023-02-05T11:12:01.953Z,6.25
2023-02-05T11:14:34.126Z,6.24
2023-02-05T11:17:08.453Z,5.63
2023-02-05T11:19:38.731Z,5.49
2023-02-05T11:22:09.469Z,5.19
2023-02-05T11:24:39.677Z,5.24
2023-02-05T11:27:26.727Z,5.06
2023-02-05T11:29:56.774Z,5.05
2023-02-05T11:32:34.182Z,5.01
2023-02-05T11:35:26.993Z,4.89
2023-02-05T11:38:01.684Z,4.86
2023-02-05T11:40:33.185Z,4.85
2023-02-05T11:43:05.114Z,4.70
2023-02-05T11:45:35.471Z,4.38
2023-02-05T11:48:08.702Z,4.28
2023-02-05T11:50:38.484Z,4.39
2023-02-05T11:53:14.458Z,4.48
2023-02-05T11:55:43.032Z,4.58
2023-02-05T11:58:34.843Z,4.54
2023-02-05T12:01:06.997Z,4.57
2023-02-05T12:03:36.606Z,4.53
2023-02-05T12:06:18.813Z,4.50
2023-02-05T12:08:51.031Z,4.59
2023-02-05T12:11:28.290Z,4.54
2023-02-05T12:14:05.472Z,4.46
2023-02-05T12:16:48.627Z,4.38
2023-02-05T12:19:22.299Z,4.39
2023-02-05T12:22:00.541Z,4.41
2023-02-05T12:24:56.593Z,4.38
2023-02-05T12:27:40.175Z,4.39
2023-02-05T12:30:27.779Z,4.17
2023-02-05T12:33:06.841Z,4.30
2023-02-05T12:35:48.903Z,4.19
2023-02-05T12:38:32.422Z,4.17
2023-02-05T12:41:14.209Z,4.09
2023-02-05T12:43:47.812Z,3.95
2023-02-05T12:46:37.103Z,3.97
2023-02-05T12:49:19.799Z,3.89
2023-02-05T12:52:01.211Z,3.93
2023-02-05T12:54:46.630Z,3.88
2023-02-05T12:57:19.970Z,3.93
2023-02-05T12:59:51.784Z,4.00
2023-02-05T13:02:27.305Z,3.83
2023-02-05T13:05:02.731Z,3.83
2023-02-05T13:07:36.201Z,3.81
2023-02-05T13:10:07.960Z,3.75
2023-02-05T13:12:40.285Z,3.71
2023-02-05T13:15:17.722Z,3.74
2023-02-05T13:17:55.621Z,3.67
2023-02-05T13:20:47.043Z,3.64
2023-02-05T13:23:34.258Z,3.49
2023-02-05T13:26:23.715Z,3.33
2023-02-05T13:28:55.261Z,3.27
2023-02-05T13:31:31.308Z,3.31
2023-02-05T13:34:05.121Z,3.28
2023-02-05T13:37:11.153Z,3.20
2023-02-05T13:40:08.065Z,3.24
2023-02-05T13:43:15.533Z,3.01
2023-02-05T13:46:20.090Z,2.91
2023-02-05T13:49:20.781Z,2.94
2023-02-05T13:52:07.571Z,2.89
2023-02-05T13:55:09.051Z,2.77
2023-02-05T13:58:12.853Z,2.69
2023-02-05T14:00:43.421Z,2.63
2023-02-05T14:03:27.113Z,2.72
2023-02-05T14:05:55.042Z,2.76
2023-02-05T14:08:26.402Z,2.76
2023-02-05T14:11:00.262Z,2.87
2023-02-05T14:13:33.607Z,2.85
2023-02-05T14:16:34.289Z,2.79
2023-02-05T14:19:15.222Z,2.74
2023-02-05T14:21:58.179Z,2.79
2023-02-05T14:24:40.314Z,2.75
2023-02-05T14:27:41.945Z,2.71
2023-02-05T14:30:46.154Z,2.69
2023-02-05T14:33:36.171Z,2.60
2023-02-05T14:36:36.767Z,2.56
2023-02-05T14:39:18.702Z,2.50
2023-02-05T14:41:51.937Z,2.53
2023-02-05T14:44:24.999Z,2.41
2023-02-05T14:47:05.331Z,2.36
2023-02-05T14:49:43.241Z,2.41
2023-02-05T14:52:28.070Z,2.35
2023-02-05T14:55:00.336Z,2.33
2023-02-05T14:57:35.860Z,2.31
2023-02-05T15:00:05.472Z,2.24
2023-02-05T15:03:00.750Z,2.28
2023-02-05T15:05:36.176Z,2.28
2023-02-05T15:08:12.157Z,2.25
2023-02-05T15:10:49.927Z,2.21
2023-02-05T15:13:20.078Z,2.16
2023-02-05T15:16:22.463Z,2.09
2023-02-05T15:18:54.014Z,2.05
2023-02-05T15:21:26.390Z,1.99
2023-02-05T15:24:01.728Z,2.02
2023-02-05T15:26:40.686Z,1.92
2023-02-05T15:29:14.953Z,1.92
2023-02-05T15:31:47.630Z,1.84
2023-02-05T15:34:30.875Z,1.82
2023-02-05T15:37:04.518Z,1.78
2023-02-05T15:39:43.338Z,1.73
2023-02-05T15:42:17.226Z,1.66
2023-02-05T15:44:45.016Z,1.62
2023-02-05T15:47:19.680Z,1.58
2023-02-05T15:49:52.696Z,1.52
2023-02-05T15:52:23.575Z,1.51
2023-02-05T15:54:52.873Z,1.48
2023-02-05T15:57:24.236Z,1.45
2023-02-05T15:59:54.036Z,1.42
2023-02-05T16:02:24.054Z,1.39
2023-02-05T16:04:58.627Z,1.37
2023-02-05T16:07:29.424Z,1.34
2023-02-05T16:09:59.663Z,1.32
2023-02-05T16:12:30.461Z,1.30
2023-02-05T16:15:02.362Z,1.27
2023-02-05T16:17:36.692Z,1.27
2023-02-05T16:20:17.598Z,1.22
2023-02-05T16:22:48.864Z,1.14
2023-02-05T16:25:27.962Z,1.12
2023-02-05T16:27:57.082Z,1.10
2023-02-05T16:30:34.928Z,1.04
2023-02-05T16:33:05.061Z,0.99
2023-02-05T16:35:38.518Z,0.98
2023-02-05T16:38:09.209Z,0.95
2023-02-05T16:40:40.897Z,0.90
2023-02-05T16:43:22.060Z,0.93
2023-02-05T16:46:23.969Z,0.98
2023-02-05T16:48:53.702Z,0.96
2023-02-05T16:51:35.474Z,0.95
2023-02-05T16:54:29.769Z,0.97
2023-02-05T16:57:03.194Z,1.03
2023-02-05T16:59:34.812Z,1.05
2023-02-05T17:02:03.484Z,1.05
2023-02-05T17:04:34.676Z,1.11
2023-02-05T17:07:07.207Z,1.10
2023-02-05T17:09:37.235Z,1.03
2023-02-05T17:12:41.466Z,0.99
2023-02-05T17:15:37.492Z,0.98
2023-02-05T17:18:23.720Z,0.94
2023-02-05T17:20:51.500Z,0.90
2023-02-05T17:23:20.625Z,0.87
2023-02-05T17:25:55.092Z,0.83
2023-02-05T17:28:25.865Z,0.76
2023-02-05T17:30:55.166Z,0.77
2023-02-05T17:33:24.760Z,0.74
2023-02-05T17:35:52.748Z,0.68
2023-02-05T17:38:23.552Z,0.68
2023-02-05T17:41:11.481Z,0.70
2023-02-05T17:43:39.573Z,0.75
2023-02-05T17:46:12.802Z,0.73
2023-02-05T17:48:40.652Z,0.73
2023-02-05T17:51:12.290Z,0.77
2023-02-05T17:53:44.004Z,0.77
2023-02-05T17:56:13.204Z,0.72
2023-02-05T17:58:41.771Z,0.69
2023-02-05T18:01:11.817Z,0.70
2023-02-05T18:03:39.726Z,0.70
2023-02-05T18:06:07.573Z,0.65
2023-02-05T18:08:37.113Z,0.65
2023-02-05T18:11:06.482Z,0.66
2023-02-05T18:13:36.706Z,0.64
2023-02-05T18:16:05.038Z,0.59
2023-02-05T18:18:35.777Z,0.60
2023-02-05T18:21:03.499Z,0.68
2023-02-05T18:23:31.390Z,0.63
2023-02-05T18:26:00.220Z,0.60
2023-02-05T18:28:29.679Z,0.52
2023-02-05T18:30:59.093Z,0.53
2023-02-05T18:33:26.998Z,0.54
2023-02-05T18:35:55.194Z,0.49
2023-02-05T18:38:23.474Z,0.48
2023-02-05T18:40:51.493Z,0.49
2023-02-05T18:43:19.363Z,0.46
2023-02-05T18:45:48.462Z,0.48
2023-02-05T18:48:18.278Z,0.51
2023-02-05T18:50:45.982Z,0.58
2023-02-05T18:53:13.711Z,0.51
2023-02-05T18:55:41.398Z,0.47
2023-02-05T18:58:09.086Z,0.41
2023-02-05T19:00:37.477Z,0.43
2023-02-05T19:03:06.727Z,0.43
2023-02-05T19:05:35.751Z,0.41
2023-02-05T19:08:06.266Z,0.44
2023-02-05T19:10:34.429Z,0.41
2023-02-05T19:13:02.308Z,0.34
2023-02-05T19:15:31.593Z,0.23
2023-02-05T19:17:59.304Z,0.25
2023-02-05T19:20:28.367Z,0.25
2023-02-05T19:22:56.064Z,0.39
2023-02-05T19:25:24.059Z,0.40
2023-02-05T19:27:53.127Z,0.32
2023-02-05T19:30:20.970Z,0.25
2023-02-05T19:32:48.717Z,0.20
2023-02-05T19:35:16.486Z,0.17
2023-02-05T19:37:45.561Z,0.17
2023-02-05T19:40:15.271Z,0.19
2023-02-05T19:42:44.596Z,0.17
2023-02-05T19:45:12.383Z,0.23
2023-02-05T19:47:40.087Z,0.26
2023-02-05T19:50:08.614Z,0.24
2023-02-05T19:52:39.350Z,0.35
2023-02-05T19:55:09.032Z,0.42
2023-02-05T19:57:36.726Z,0.42
2023-02-05T20:00:05.265Z,0.46
2023-02-05T20:02:35.363Z,0.58
2023-02-05T20:05:03.120Z,0.51
2023-02-05T20:07:33.829Z,0.51
2023-02-05T20:10:01.678Z,0.57
2023-02-05T20:12:30.749Z,0.61
2023-02-05T20:14:58.514Z,0.61
2023-02-05T20:17:26.304Z,0.61
2023-02-05T20:20:02.559Z,0.62
2023-02-05T20:22:36.862Z,0.65
2023-02-05T20:25:04.972Z,0.70
2023-02-05T20:27:34.021Z,0.72
2023-02-05T20:30:18.925Z,0.61
2023-02-05T20:32:46.646Z,0.54
2023-02-05T20:35:14.340Z,0.58
2023-02-05T20:37:42.087Z,0.52
2023-02-05T20:40:11.055Z,0.52
2023-02-05T20:42:40.145Z,0.54
2023-02-05T20:45:08.676Z,0.56
2023-02-05T20:47:36.459Z,0.58
2023-02-05T20:50:04.265Z,0.61
2023-02-05T20:52:32.030Z,0.64
2023-02-05T20:54:59.798Z,0.63
2023-02-05T20:57:27.557Z,0.62
2023-02-05T20:59:56.635Z,0.66
2023-02-05T21:02:24.408Z,0.67
2023-02-05T21:04:52.816Z,0.68
2023-02-05T21:07:25.081Z,0.59
2023-02-05T21:09:53.531Z,0.60
2023-02-05T21:12:21.273Z,0.60
2023-02-05T21:14:51.514Z,0.65
2023-02-05T21:17:20.580Z,0.60
2023-02-05T21:19:48.269Z,0.63
2023-02-05T21:22:15.979Z,0.61
2023-02-05T21:24:43.720Z,0.60
2023-02-05T21:27:11.946Z,0.59
2023-02-05T21:29:39.632Z,0.60
2023-02-05T21:32:08.069Z,0.59
2023-02-05T21:34:37.117Z,0.59
2023-02-05T21:37:04.788Z,0.59
2023-02-05T21:39:32.968Z,0.59
2023-02-05T21:42:06.645Z,0.57
2023-02-05T21:44:34.317Z,0.59
2023-02-05T21:47:02.006Z,0.55
2023-02-05T21:49:29.705Z,0.60
2023-02-05T21:51:58.779Z,0.59
2023-02-05T21:54:26.471Z,0.52
2023-02-05T21:56:54.131Z,0.43
2023-02-05T21:59:23.544Z,0.39
2023-02-05T22:01:51.323Z,0.32
2023-02-05T22:04:21.909Z,0.35
2023-02-05T22:06:51.249Z,0.37
2023-02-05T22:09:20.585Z,0.28
2023-02-05T22:11:50.376Z,0.24
2023-02-05T22:14:18.111Z,0.22
2023-02-05T22:16:46.040Z,0.36
2023-02-05T22:19:13.893Z,0.31
2023-02-05T22:21:43.485Z,0.31
2023-02-05T22:24:15.102Z,0.34
2023-02-05T22:26:45.199Z,0.27
2023-02-05T22:29:16.430Z,0.30
2023-02-05T22:31:46.326Z,0.28
2023-02-05T22:34:14.075Z,0.23
2023-02-05T22:36:41.832Z,0.23
2023-02-05T22:39:09.631Z,0.28
2023-02-05T22:41:39.294Z,0.25
2023-02-05T22:44:10.002Z,0.20
2023-02-05T22:46:42.469Z,0.19
2023-02-05T22:49:15.113Z,0.08
2023-02-05T22:51:45.588Z,0.06
2023-02-05T22:54:14.676Z,0.04
2023-02-05T23:01:25.697Z,-0.08
2023-02-05T23:03:56.120Z,-0.08
2023-02-05T23:06:25.515Z,-0.11
2023-02-05T23:08:55.044Z,-0.17
2023-02-05T23:11:23.216Z,-0.22
2023-02-05T23:13:50.968Z,-0.28
2023-02-05T23:16:20.598Z,-0.30
2023-02-05T23:18:50.522Z,-0.48
2023-02-05T23:21:20.566Z,-0.63
2023-02-05T23:23:49.566Z,-0.79
2023-02-05T23:26:19.547Z,-0.96
2023-02-05T23:28:47.770Z,-1.13
2023-02-05T23:31:16.203Z,-1.22
2023-02-05T23:33:44.096Z,-1.30
2023-02-05T23:36:13.223Z,-1.41
2023-02-05T23:38:41.316Z,-1.45
2023-02-05T23:41:09.315Z,-1.50
2023-02-05T23:43:38.242Z,-1.56
2023-02-05T23:46:08.903Z,-1.53
2023-02-05T23:48:36.765Z,-1.47
2023-02-05T23:51:04.603Z,-1.42
2023-02-05T23:53:33.629Z,-1.42
2023-02-05T23:56:03.717Z,-1.30
2023-02-05T23:58:31.397Z,-1.26
